sensor_id;sensor_type;location;lat;lon;timestamp;P1;durP1;ratioP1;P2;durP2;ratioP2
58091;SDS011;43896;48.178;11.578;2024-03-22T00:00:11;14.23;;;9.77;;
58091;SDS011;43896;48.178;11.578;2024-03-22T00:02:37;14.15;;;9.85;;
58091;SDS011;43896;48.178;11.578;2024-03-22T00:05:04;14.00;;;9.80;;
58091;SDS011;43896;48.178;11.578;2024-03-22T00:07:29;16.33;;;9.98;;
58091;SDS011;43896;48.178;11.578;2024-03-22T00:09:55;13.77;;;9.52;;
58091;SDS011;43896;48.178;11.578;2024-03-22T00:12:21;14.35;;;9.40;;
58091;SDS011;43896;48.178;11.578;2024-03-22T00:14:47;14.13;;;9.88;;
58091;SDS011;43896;48.178;11.578;2024-03-22T00:17:12;14.68;;;9.65;;
58091;SDS011;43896;48.178;11.578;2024-03-22T00:19:38;14.90;;;9.93;;
58091;SDS011;43896;48.178;11.578;2024-03-22T00:22:03;14.73;;;9.60;;
58091;SDS011;43896;48.178;11.578;2024-03-22T00:24:29;17.33;;;10.65;;
58091;SDS011;43896;48.178;11.578;2024-03-22T00:26:54;14.55;;;10.00;;
58091;SDS011;43896;48.178;11.578;2024-03-22T00:29:19;14.35;;;9.98;;
58091;SDS011;43896;48.178;11.578;2024-03-22T00:31:45;15.25;;;9.93;;
58091;SDS011;43896;48.178;11.578;2024-03-22T00:34:10;15.52;;;10.18;;
58091;SDS011;43896;48.178;11.578;2024-03-22T00:36:36;14.07;;;9.90;;
58091;SDS011;43896;48.178;11.578;2024-03-22T00:39:01;14.00;;;10.10;;
58091;SDS011;43896;48.178;11.578;2024-03-22T00:41:28;14.82;;;9.65;;
58091;SDS011;43896;48.178;11.578;2024-03-22T00:43:53;14.80;;;9.70;;
58091;SDS011;43896;48.178;11.578;2024-03-22T00:46:19;15.18;;;9.75;;
58091;SDS011;43896;48.178;11.578;2024-03-22T00:48:44;14.85;;;9.73;;
58091;SDS011;43896;48.178;11.578;2024-03-22T00:51:10;14.00;;;9.20;;
58091;SDS011;43896;48.178;11.578;2024-03-22T00:53:35;13.68;;;9.20;;
58091;SDS011;43896;48.178;11.578;2024-03-22T00:56:01;14.95;;;9.20;;
58091;SDS011;43896;48.178;11.578;2024-03-22T00:58:26;16.23;;;9.32;;
58091;SDS011;43896;48.178;11.578;2024-03-22T01:00:52;14.20;;;9.48;;
58091;SDS011;43896;48.178;11.578;2024-03-22T01:03:18;15.57;;;9.77;;
58091;SDS011;43896;48.178;11.578;2024-03-22T01:05:43;14.45;;;9.55;;
58091;SDS011;43896;48.178;11.578;2024-03-22T01:08:09;13.70;;;9.15;;
58091;SDS011;43896;48.178;11.578;2024-03-22T01:10:35;13.13;;;9.18;;
58091;SDS011;43896;48.178;11.578;2024-03-22T01:13:00;14.15;;;9.40;;
58091;SDS011;43896;48.178;11.578;2024-03-22T01:15:26;14.45;;;9.70;;
58091;SDS011;43896;48.178;11.578;2024-03-22T01:17:52;14.50;;;9.52;;
58091;SDS011;43896;48.178;11.578;2024-03-22T01:20:17;14.50;;;9.40;;
58091;SDS011;43896;48.178;11.578;2024-03-22T01:22:43;14.27;;;9.25;;
58091;SDS011;43896;48.178;11.578;2024-03-22T01:25:08;14.68;;;9.40;;
58091;SDS011;43896;48.178;11.578;2024-03-22T01:27:35;14.18;;;9.18;;
58091;SDS011;43896;48.178;11.578;2024-03-22T01:30:01;14.35;;;9.45;;
58091;SDS011;43896;48.178;11.578;2024-03-22T01:32:27;15.00;;;9.43;;
58091;SDS011;43896;48.178;11.578;2024-03-22T01:34:52;15.48;;;9.77;;
58091;SDS011;43896;48.178;11.578;2024-03-22T01:37:18;15.15;;;9.43;;
58091;SDS011;43896;48.178;11.578;2024-03-22T01:39:43;13.95;;;8.48;;
58091;SDS011;43896;48.178;11.578;2024-03-22T01:42:08;14.23;;;9.38;;
58091;SDS011;43896;48.178;11.578;2024-03-22T01:44:34;13.95;;;9.20;;
58091;SDS011;43896;48.178;11.578;2024-03-22T01:46:59;14.77;;;9.43;;
58091;SDS011;43896;48.178;11.578;2024-03-22T01:49:25;14.25;;;9.50;;
58091;SDS011;43896;48.178;11.578;2024-03-22T01:51:52;13.52;;;8.93;;
58091;SDS011;43896;48.178;11.578;2024-03-22T01:54:17;12.43;;;9.05;;
58091;SDS011;43896;48.178;11.578;2024-03-22T01:56:45;13.10;;;8.88;;
58091;SDS011;43896;48.178;11.578;2024-03-22T01:59:11;13.73;;;9.40;;
58091;SDS011;43896;48.178;11.578;2024-03-22T02:01:37;13.45;;;9.25;;
58091;SDS011;43896;48.178;11.578;2024-03-22T02:04:03;14.45;;;9.45;;
58091;SDS011;43896;48.178;11.578;2024-03-22T02:06:28;13.77;;;9.20;;
58091;SDS011;43896;48.178;11.578;2024-03-22T02:08:54;14.70;;;9.18;;
58091;SDS011;43896;48.178;11.578;2024-03-22T02:11:20;15.30;;;9.38;;
58091;SDS011;43896;48.178;11.578;2024-03-22T02:13:46;15.75;;;9.32;;
58091;SDS011;43896;48.178;11.578;2024-03-22T02:16:12;14.32;;;9.60;;
58091;SDS011;43896;48.178;11.578;2024-03-22T02:18:37;14.25;;;9.10;;
58091;SDS011;43896;48.178;11.578;2024-03-22T02:21:03;14.75;;;9.60;;
58091;SDS011;43896;48.178;11.578;2024-03-22T02:23:32;14.68;;;9.40;;
58091;SDS011;43896;48.178;11.578;2024-03-22T02:25:58;13.93;;;9.63;;
58091;SDS011;43896;48.178;11.578;2024-03-22T02:28:24;14.65;;;9.55;;
58091;SDS011;43896;48.178;11.578;2024-03-22T02:30:49;13.52;;;9.32;;
58091;SDS011;43896;48.178;11.578;2024-03-22T02:33:15;16.52;;;9.73;;
58091;SDS011;43896;48.178;11.578;2024-03-22T02:35:40;14.57;;;9.95;;
58091;SDS011;43896;48.178;11.578;2024-03-22T02:38:06;14.98;;;10.00;;
58091;SDS011;43896;48.178;11.578;2024-03-22T02:40:31;14.82;;;9.77;;
58091;SDS011;43896;48.178;11.578;2024-03-22T02:42:56;14.52;;;9.90;;
58091;SDS011;43896;48.178;11.578;2024-03-22T02:45:22;14.98;;;10.20;;
58091;SDS011;43896;48.178;11.578;2024-03-22T02:47:47;15.65;;;10.05;;
58091;SDS011;43896;48.178;11.578;2024-03-22T02:50:13;16.35;;;10.15;;
58091;SDS011;43896;48.178;11.578;2024-03-22T02:52:38;15.43;;;9.85;;
58091;SDS011;43896;48.178;11.578;2024-03-22T02:55:04;15.95;;;9.73;;
58091;SDS011;43896;48.178;11.578;2024-03-22T02:57:29;15.32;;;9.77;;
58091;SDS011;43896;48.178;11.578;2024-03-22T02:59:55;15.57;;;10.05;;
58091;SDS011;43896;48.178;11.578;2024-03-22T03:02:20;17.05;;;10.38;;
58091;SDS011;43896;48.178;11.578;2024-03-22T03:04:45;16.45;;;10.05;;
58091;SDS011;43896;48.178;11.578;2024-03-22T03:07:11;17.77;;;10.30;;
58091;SDS011;43896;48.178;11.578;2024-03-22T03:09:36;15.13;;;9.93;;
58091;SDS011;43896;48.178;11.578;2024-03-22T03:12:02;14.60;;;9.90;;
58091;SDS011;43896;48.178;11.578;2024-03-22T03:14:27;15.23;;;9.93;;
58091;SDS011;43896;48.178;11.578;2024-03-22T03:16:53;14.27;;;9.82;;
58091;SDS011;43896;48.178;11.578;2024-03-22T03:19:18;15.10;;;9.73;;
58091;SDS011;43896;48.178;11.578;2024-03-22T03:21:44;16.52;;;10.32;;
58091;SDS011;43896;48.178;11.578;2024-03-22T03:24:09;15.00;;;9.45;;
58091;SDS011;43896;48.178;11.578;2024-03-22T03:26:35;17.38;;;10.07;;
58091;SDS011;43896;48.178;11.578;2024-03-22T03:29:00;14.98;;;9.98;;
58091;SDS011;43896;48.178;11.578;2024-03-22T03:31:25;16.58;;;10.02;;
58091;SDS011;43896;48.178;11.578;2024-03-22T03:33:51;17.63;;;10.63;;
58091;SDS011;43896;48.178;11.578;2024-03-22T03:36:16;16.17;;;10.27;;
58091;SDS011;43896;48.178;11.578;2024-03-22T03:38:42;15.38;;;10.13;;
58091;SDS011;43896;48.178;11.578;2024-03-22T03:41:07;16.50;;;10.20;;
58091;SDS011;43896;48.178;11.578;2024-03-22T03:43:33;15.80;;;10.38;;
58091;SDS011;43896;48.178;11.578;2024-03-22T03:45:58;16.25;;;9.75;;
58091;SDS011;43896;48.178;11.578;2024-03-22T03:48:25;15.55;;;9.73;;
58091;SDS011;43896;48.178;11.578;2024-03-22T03:50:51;15.45;;;10.20;;
58091;SDS011;43896;48.178;11.578;2024-03-22T03:53:17;16.73;;;10.82;;
58091;SDS011;43896;48.178;11.578;2024-03-22T03:55:43;13.93;;;9.43;;
58091;SDS011;43896;48.178;11.578;2024-03-22T03:58:08;15.32;;;9.73;;
58091;SDS011;43896;48.178;11.578;2024-03-22T04:00:34;16.13;;;9.70;;
58091;SDS011;43896;48.178;11.578;2024-03-22T04:03:00;16.20;;;10.38;;
58091;SDS011;43896;48.178;11.578;2024-03-22T04:05:25;14.32;;;9.60;;
58091;SDS011;43896;48.178;11.578;2024-03-22T04:07:51;16.30;;;10.23;;
58091;SDS011;43896;48.178;11.578;2024-03-22T04:10:16;15.73;;;9.82;;
58091;SDS011;43896;48.178;11.578;2024-03-22T04:12:42;15.98;;;9.45;;
58091;SDS011;43896;48.178;11.578;2024-03-22T04:15:07;15.65;;;9.57;;
58091;SDS011;43896;48.178;11.578;2024-03-22T04:17:33;16.27;;;10.00;;
58091;SDS011;43896;48.178;11.578;2024-03-22T04:19:58;14.43;;;9.63;;
58091;SDS011;43896;48.178;11.578;2024-03-22T04:22:23;13.75;;;9.30;;
58091;SDS011;43896;48.178;11.578;2024-03-22T04:24:49;15.90;;;10.18;;
58091;SDS011;43896;48.178;11.578;2024-03-22T04:27:14;14.00;;;9.05;;
58091;SDS011;43896;48.178;11.578;2024-03-22T04:29:40;15.65;;;10.00;;
58091;SDS011;43896;48.178;11.578;2024-03-22T04:32:05;15.23;;;9.88;;
58091;SDS011;43896;48.178;11.578;2024-03-22T04:34:30;15.23;;;9.45;;
58091;SDS011;43896;48.178;11.578;2024-03-22T04:36:56;14.65;;;9.25;;
58091;SDS011;43896;48.178;11.578;2024-03-22T04:39:22;14.63;;;9.27;;
58091;SDS011;43896;48.178;11.578;2024-03-22T04:41:47;15.02;;;9.52;;
58091;SDS011;43896;48.178;11.578;2024-03-22T04:44:13;14.52;;;9.68;;
58091;SDS011;43896;48.178;11.578;2024-03-22T04:46:38;15.00;;;9.77;;
58091;SDS011;43896;48.178;11.578;2024-03-22T04:49:04;14.02;;;9.63;;
58091;SDS011;43896;48.178;11.578;2024-03-22T04:51:29;15.32;;;10.10;;
58091;SDS011;43896;48.178;11.578;2024-03-22T04:53:55;16.42;;;10.27;;
58091;SDS011;43896;48.178;11.578;2024-03-22T04:56:20;15.45;;;9.65;;
58091;SDS011;43896;48.178;11.578;2024-03-22T04:58:46;14.80;;;9.38;;
58091;SDS011;43896;48.178;11.578;2024-03-22T05:01:11;15.82;;;10.60;;
58091;SDS011;43896;48.178;11.578;2024-03-22T05:03:37;16.20;;;9.90;;
58091;SDS011;43896;48.178;11.578;2024-03-22T05:06:03;15.25;;;9.98;;
58091;SDS011;43896;48.178;11.578;2024-03-22T05:08:31;14.05;;;9.52;;
58091;SDS011;43896;48.178;11.578;2024-03-22T05:10:56;15.65;;;9.95;;
58091;SDS011;43896;48.178;11.578;2024-03-22T05:13:22;16.13;;;10.02;;
58091;SDS011;43896;48.178;11.578;2024-03-22T05:15:47;16.13;;;10.43;;
58091;SDS011;43896;48.178;11.578;2024-03-22T05:18:13;15.50;;;9.82;;
58091;SDS011;43896;48.178;11.578;2024-03-22T05:20:38;16.02;;;9.77;;
58091;SDS011;43896;48.178;11.578;2024-03-22T05:23:04;14.32;;;9.73;;
58091;SDS011;43896;48.178;11.578;2024-03-22T05:25:29;15.27;;;9.43;;
58091;SDS011;43896;48.178;11.578;2024-03-22T05:27:55;15.25;;;9.80;;
58091;SDS011;43896;48.178;11.578;2024-03-22T05:30:20;16.35;;;10.55;;
58091;SDS011;43896;48.178;11.578;2024-03-22T05:32:46;13.68;;;8.75;;
58091;SDS011;43896;48.178;11.578;2024-03-22T05:35:11;14.85;;;9.73;;
58091;SDS011;43896;48.178;11.578;2024-03-22T05:37:36;14.90;;;9.50;;
58091;SDS011;43896;48.178;11.578;2024-03-22T05:40:03;13.77;;;9.32;;
58091;SDS011;43896;48.178;11.578;2024-03-22T05:42:30;14.60;;;9.40;;
58091;SDS011;43896;48.178;11.578;2024-03-22T05:44:55;14.38;;;9.48;;
58091;SDS011;43896;48.178;11.578;2024-03-22T05:47:20;14.52;;;9.00;;
58091;SDS011;43896;48.178;11.578;2024-03-22T05:49:47;15.02;;;8.70;;
58091;SDS011;43896;48.178;11.578;2024-03-22T05:52:12;14.23;;;8.68;;
58091;SDS011;43896;48.178;11.578;2024-03-22T05:54:38;14.10;;;9.02;;
58091;SDS011;43896;48.178;11.578;2024-03-22T05:57:03;13.38;;;9.07;;
58091;SDS011;43896;48.178;11.578;2024-03-22T05:59:30;12.30;;;8.10;;
58091;SDS011;43896;48.178;11.578;2024-03-22T06:01:55;12.85;;;8.60;;
58091;SDS011;43896;48.178;11.578;2024-03-22T06:04:21;13.60;;;8.60;;
58091;SDS011;43896;48.178;11.578;2024-03-22T06:06:46;13.70;;;8.68;;
58091;SDS011;43896;48.178;11.578;2024-03-22T06:09:12;14.23;;;8.70;;
58091;SDS011;43896;48.178;11.578;2024-03-22T06:11:38;14.27;;;8.68;;
58091;SDS011;43896;48.178;11.578;2024-03-22T06:14:04;15.35;;;9.40;;
58091;SDS011;43896;48.178;11.578;2024-03-22T06:16:30;13.23;;;8.93;;
58091;SDS011;43896;48.178;11.578;2024-03-22T06:18:55;13.68;;;8.52;;
58091;SDS011;43896;48.178;11.578;2024-03-22T06:21:21;14.52;;;8.70;;
58091;SDS011;43896;48.178;11.578;2024-03-22T06:23:49;11.85;;;7.90;;
58091;SDS011;43896;48.178;11.578;2024-03-22T06:26:15;15.75;;;8.43;;
58091;SDS011;43896;48.178;11.578;2024-03-22T06:28:41;13.75;;;8.43;;
58091;SDS011;43896;48.178;11.578;2024-03-22T06:31:06;13.73;;;7.85;;
58091;SDS011;43896;48.178;11.578;2024-03-22T06:33:33;11.93;;;8.10;;
58091;SDS011;43896;48.178;11.578;2024-03-22T06:35:59;12.13;;;8.00;;
58091;SDS011;43896;48.178;11.578;2024-03-22T06:38:24;13.90;;;8.57;;
58091;SDS011;43896;48.178;11.578;2024-03-22T06:40:50;12.30;;;7.60;;
58091;SDS011;43896;48.178;11.578;2024-03-22T06:43:15;12.15;;;7.90;;
58091;SDS011;43896;48.178;11.578;2024-03-22T06:45:41;10.48;;;7.38;;
58091;SDS011;43896;48.178;11.578;2024-03-22T06:48:06;12.40;;;7.80;;
58091;SDS011;43896;48.178;11.578;2024-03-22T06:50:32;14.10;;;7.70;;
58091;SDS011;43896;48.178;11.578;2024-03-22T06:52:57;11.40;;;7.10;;
58091;SDS011;43896;48.178;11.578;2024-03-22T06:55:23;12.35;;;7.75;;
58091;SDS011;43896;48.178;11.578;2024-03-22T06:57:48;11.02;;;7.38;;
58091;SDS011;43896;48.178;11.578;2024-03-22T07:00:15;10.88;;;7.55;;
58091;SDS011;43896;48.178;11.578;2024-03-22T07:02:41;11.82;;;7.25;;
58091;SDS011;43896;48.178;11.578;2024-03-22T07:05:07;10.95;;;7.13;;
58091;SDS011;43896;48.178;11.578;2024-03-22T07:07:33;12.63;;;7.13;;
58091;SDS011;43896;48.178;11.578;2024-03-22T07:09:59;10.90;;;7.25;;
58091;SDS011;43896;48.178;11.578;2024-03-22T07:12:25;10.68;;;7.13;;
58091;SDS011;43896;48.178;11.578;2024-03-22T07:14:50;10.60;;;6.88;;
58091;SDS011;43896;48.178;11.578;2024-03-22T07:17:16;11.15;;;7.32;;
58091;SDS011;43896;48.178;11.578;2024-03-22T07:19:41;11.30;;;7.00;;
58091;SDS011;43896;48.178;11.578;2024-03-22T07:22:07;9.65;;;6.72;;
58091;SDS011;43896;48.178;11.578;2024-03-22T07:24:33;9.50;;;6.85;;
58091;SDS011;43896;48.178;11.578;2024-03-22T07:26:58;11.73;;;7.20;;
58091;SDS011;43896;48.178;11.578;2024-03-22T07:29:24;10.00;;;7.18;;
58091;SDS011;43896;48.178;11.578;2024-03-22T07:31:49;11.43;;;6.53;;
58091;SDS011;43896;48.178;11.578;2024-03-22T07:34:15;11.07;;;7.05;;
58091;SDS011;43896;48.178;11.578;2024-03-22T07:36:40;10.60;;;6.90;;
58091;SDS011;43896;48.178;11.578;2024-03-22T07:39:06;11.07;;;6.65;;
58091;SDS011;43896;48.178;11.578;2024-03-22T07:41:32;10.57;;;7.20;;
58091;SDS011;43896;48.178;11.578;2024-03-22T07:43:59;9.35;;;6.50;;
58091;SDS011;43896;48.178;11.578;2024-03-22T07:46:25;11.07;;;6.82;;
58091;SDS011;43896;48.178;11.578;2024-03-22T07:48:51;10.50;;;6.95;;
58091;SDS011;43896;48.178;11.578;2024-03-22T07:51:17;12.35;;;7.10;;
58091;SDS011;43896;48.178;11.578;2024-03-22T07:53:43;9.02;;;6.72;;
58091;SDS011;43896;48.178;11.578;2024-03-22T07:56:08;9.93;;;6.53;;
58091;SDS011;43896;48.178;11.578;2024-03-22T07:58:34;11.57;;;6.93;;
58091;SDS011;43896;48.178;11.578;2024-03-22T08:00:59;10.13;;;6.32;;
58091;SDS011;43896;48.178;11.578;2024-03-22T08:03:24;9.60;;;6.60;;
58091;SDS011;43896;48.178;11.578;2024-03-22T08:05:50;10.88;;;6.60;;
58091;SDS011;43896;48.178;11.578;2024-03-22T08:08:15;10.13;;;6.45;;
58091;SDS011;43896;48.178;11.578;2024-03-22T08:10:41;10.32;;;7.00;;
58091;SDS011;43896;48.178;11.578;2024-03-22T08:13:07;11.70;;;7.20;;
58091;SDS011;43896;48.178;11.578;2024-03-22T08:15:32;10.80;;;6.97;;
58091;SDS011;43896;48.178;11.578;2024-03-22T08:17:57;10.77;;;6.53;;
58091;SDS011;43896;48.178;11.578;2024-03-22T08:20:23;10.63;;;6.47;;
58091;SDS011;43896;48.178;11.578;2024-03-22T08:22:49;9.70;;;6.70;;
58091;SDS011;43896;48.178;11.578;2024-03-22T08:25:15;10.27;;;6.85;;
58091;SDS011;43896;48.178;11.578;2024-03-22T08:27:45;9.95;;;6.68;;
58091;SDS011;43896;48.178;11.578;2024-03-22T08:30:11;10.07;;;6.88;;
58091;SDS011;43896;48.178;11.578;2024-03-22T08:32:37;10.38;;;6.47;;
58091;SDS011;43896;48.178;11.578;2024-03-22T08:35:02;8.15;;;5.95;;
58091;SDS011;43896;48.178;11.578;2024-03-22T08:37:29;8.75;;;5.70;;
58091;SDS011;43896;48.178;11.578;2024-03-22T08:39:55;9.35;;;6.00;;
58091;SDS011;43896;48.178;11.578;2024-03-22T08:42:21;12.27;;;5.85;;
58091;SDS011;43896;48.178;11.578;2024-03-22T08:44:46;10.18;;;6.18;;
58091;SDS011;43896;48.178;11.578;2024-03-22T08:47:11;9.52;;;5.72;;
58091;SDS011;43896;48.178;11.578;2024-03-22T08:49:37;8.27;;;5.57;;
58091;SDS011;43896;48.178;11.578;2024-03-22T08:52:02;9.45;;;6.30;;
58091;SDS011;43896;48.178;11.578;2024-03-22T08:54:28;9.55;;;5.90;;
58091;SDS011;43896;48.178;11.578;2024-03-22T08:56:53;9.23;;;5.75;;
58091;SDS011;43896;48.178;11.578;2024-03-22T08:59:19;10.30;;;6.25;;
58091;SDS011;43896;48.178;11.578;2024-03-22T09:01:44;8.35;;;5.78;;
58091;SDS011;43896;48.178;11.578;2024-03-22T09:04:10;9.10;;;6.32;;
58091;SDS011;43896;48.178;11.578;2024-03-22T09:06:35;8.98;;;5.85;;
58091;SDS011;43896;48.178;11.578;2024-03-22T09:09:01;9.95;;;5.88;;
58091;SDS011;43896;48.178;11.578;2024-03-22T09:11:28;8.38;;;5.53;;
58091;SDS011;43896;48.178;11.578;2024-03-22T09:13:54;8.15;;;5.63;;
58091;SDS011;43896;48.178;11.578;2024-03-22T09:16:20;9.68;;;6.05;;
58091;SDS011;43896;48.178;11.578;2024-03-22T09:18:46;9.38;;;5.78;;
58091;SDS011;43896;48.178;11.578;2024-03-22T09:21:11;10.32;;;6.15;;
58091;SDS011;43896;48.178;11.578;2024-03-22T09:23:37;9.98;;;6.32;;
58091;SDS011;43896;48.178;11.578;2024-03-22T09:26:02;8.63;;;5.53;;
58091;SDS011;43896;48.178;11.578;2024-03-22T09:28:28;10.43;;;5.57;;
58091;SDS011;43896;48.178;11.578;2024-03-22T09:30:53;8.38;;;5.78;;
58091;SDS011;43896;48.178;11.578;2024-03-22T09:33:19;7.90;;;5.57;;
58091;SDS011;43896;48.178;11.578;2024-03-22T09:35:44;9.63;;;5.15;;
58091;SDS011;43896;48.178;11.578;2024-03-22T09:38:10;10.13;;;5.32;;
58091;SDS011;43896;48.178;11.578;2024-03-22T09:40:38;7.43;;;5.45;;
58091;SDS011;43896;48.178;11.578;2024-03-22T09:43:04;7.75;;;5.25;;
58091;SDS011;43896;48.178;11.578;2024-03-22T09:45:32;8.88;;;5.40;;
58091;SDS011;43896;48.178;11.578;2024-03-22T09:47:58;7.88;;;4.90;;
58091;SDS011;43896;48.178;11.578;2024-03-22T09:50:24;7.72;;;4.75;;
58091;SDS011;43896;48.178;11.578;2024-03-22T09:52:51;8.32;;;4.85;;
58091;SDS011;43896;48.178;11.578;2024-03-22T09:55:24;7.00;;;4.60;;
58091;SDS011;43896;48.178;11.578;2024-03-22T09:57:49;7.40;;;4.90;;
58091;SDS011;43896;48.178;11.578;2024-03-22T10:00:16;6.65;;;4.32;;
58091;SDS011;43896;48.178;11.578;2024-03-22T10:02:47;7.22;;;4.45;;
58091;SDS011;43896;48.178;11.578;2024-03-22T10:05:13;7.93;;;4.20;;
58091;SDS011;43896;48.178;11.578;2024-03-22T10:07:39;7.80;;;4.47;;
58091;SDS011;43896;48.178;11.578;2024-03-22T10:10:05;7.85;;;5.10;;
58091;SDS011;43896;48.178;11.578;2024-03-22T10:12:32;7.60;;;4.60;;
58091;SDS011;43896;48.178;11.578;2024-03-22T10:14:58;9.80;;;4.80;;
58091;SDS011;43896;48.178;11.578;2024-03-22T10:17:23;7.90;;;4.55;;
58091;SDS011;43896;48.178;11.578;2024-03-22T10:19:52;7.25;;;4.60;;
58091;SDS011;43896;48.178;11.578;2024-03-22T10:22:17;7.07;;;4.43;;
58091;SDS011;43896;48.178;11.578;2024-03-22T10:24:43;9.85;;;4.90;;
58091;SDS011;43896;48.178;11.578;2024-03-22T10:27:09;7.47;;;4.20;;
58091;SDS011;43896;48.178;11.578;2024-03-22T10:29:35;7.70;;;4.63;;
58091;SDS011;43896;48.178;11.578;2024-03-22T10:32:01;7.65;;;4.85;;
58091;SDS011;43896;48.178;11.578;2024-03-22T10:34:28;7.93;;;4.50;;
58091;SDS011;43896;48.178;11.578;2024-03-22T10:36:57;7.60;;;4.22;;
58091;SDS011;43896;48.178;11.578;2024-03-22T10:39:25;7.75;;;4.97;;
58091;SDS011;43896;48.178;11.578;2024-03-22T10:41:51;7.82;;;4.63;;
58091;SDS011;43896;48.178;11.578;2024-03-22T10:44:18;9.10;;;4.68;;
58091;SDS011;43896;48.178;11.578;2024-03-22T10:46:45;6.18;;;4.28;;
58091;SDS011;43896;48.178;11.578;2024-03-22T10:49:16;7.50;;;4.75;;
58091;SDS011;43896;48.178;11.578;2024-03-22T10:51:44;8.60;;;4.82;;
58091;SDS011;43896;48.178;11.578;2024-03-22T10:54:20;7.88;;;4.00;;
58091;SDS011;43896;48.178;11.578;2024-03-22T10:56:49;6.97;;;4.60;;
58091;SDS011;43896;48.178;11.578;2024-03-22T10:59:19;6.57;;;3.85;;
58091;SDS011;43896;48.178;11.578;2024-03-22T11:01:46;8.13;;;4.40;;
58091;SDS011;43896;48.178;11.578;2024-03-22T11:04:11;6.82;;;3.80;;
58091;SDS011;43896;48.178;11.578;2024-03-22T11:06:40;8.20;;;4.10;;
58091;SDS011;43896;48.178;11.578;2024-03-22T11:11:35;6.70;;;4.15;;
58091;SDS011;43896;48.178;11.578;2024-03-22T11:14:02;6.68;;;4.30;;
58091;SDS011;43896;48.178;11.578;2024-03-22T11:16:28;7.05;;;4.63;;
58091;SDS011;43896;48.178;11.578;2024-03-22T11:18:55;7.20;;;4.10;;
58091;SDS011;43896;48.178;11.578;2024-03-22T11:21:21;6.10;;;4.03;;
58091;SDS011;43896;48.178;11.578;2024-03-22T11:23:46;6.90;;;4.30;;
58091;SDS011;43896;48.178;11.578;2024-03-22T11:26:12;7.68;;;4.30;;
58091;SDS011;43896;48.178;11.578;2024-03-22T11:28:38;7.55;;;4.90;;
58091;SDS011;43896;48.178;11.578;2024-03-22T11:31:04;7.30;;;4.72;;
58091;SDS011;43896;48.178;11.578;2024-03-22T11:33:30;6.40;;;4.03;;
58091;SDS011;43896;48.178;11.578;2024-03-22T11:35:58;6.82;;;4.28;;
58091;SDS011;43896;48.178;11.578;2024-03-22T11:38:25;7.07;;;4.50;;
58091;SDS011;43896;48.178;11.578;2024-03-22T11:40:52;6.75;;;4.47;;
58091;SDS011;43896;48.178;11.578;2024-03-22T11:43:20;9.82;;;4.32;;
58091;SDS011;43896;48.178;11.578;2024-03-22T11:45:46;5.22;;;3.78;;
58091;SDS011;43896;48.178;11.578;2024-03-22T11:48:12;6.70;;;4.50;;
58091;SDS011;43896;48.178;11.578;2024-03-22T11:50:38;8.05;;;5.03;;
58091;SDS011;43896;48.178;11.578;2024-03-22T11:53:07;6.65;;;4.28;;
58091;SDS011;43896;48.178;11.578;2024-03-22T11:55:35;7.85;;;4.90;;
58091;SDS011;43896;48.178;11.578;2024-03-22T11:58:01;6.43;;;4.43;;
58091;SDS011;43896;48.178;11.578;2024-03-22T12:00:27;6.70;;;4.43;;
58091;SDS011;43896;48.178;11.578;2024-03-22T12:02:53;6.95;;;4.40;;
58091;SDS011;43896;48.178;11.578;2024-03-22T12:05:18;6.97;;;4.43;;
58091;SDS011;43896;48.178;11.578;2024-03-22T12:07:45;6.50;;;3.80;;
58091;SDS011;43896;48.178;11.578;2024-03-22T12:10:11;5.80;;;3.65;;
58091;SDS011;43896;48.178;11.578;2024-03-22T12:12:36;6.50;;;3.78;;
58091;SDS011;43896;48.178;11.578;2024-03-22T12:15:02;5.72;;;3.70;;
58091;SDS011;43896;48.178;11.578;2024-03-22T12:17:28;5.93;;;3.90;;
58091;SDS011;43896;48.178;11.578;2024-03-22T12:19:54;6.55;;;3.90;;
58091;SDS011;43896;48.178;11.578;2024-03-22T12:22:21;6.18;;;4.05;;
58091;SDS011;43896;48.178;11.578;2024-03-22T12:24:47;8.18;;;4.60;;
58091;SDS011;43896;48.178;11.578;2024-03-22T12:27:12;5.72;;;3.92;;
58091;SDS011;43896;48.178;11.578;2024-03-22T12:29:38;8.32;;;4.35;;
58091;SDS011;43896;48.178;11.578;2024-03-22T12:32:03;6.75;;;3.90;;
58091;SDS011;43896;48.178;11.578;2024-03-22T12:34:29;6.43;;;4.18;;
58091;SDS011;43896;48.178;11.578;2024-03-22T12:36:55;5.35;;;3.65;;
58091;SDS011;43896;48.178;11.578;2024-03-22T12:39:21;6.72;;;4.38;;
58091;SDS011;43896;48.178;11.578;2024-03-22T12:41:47;7.80;;;4.65;;
58091;SDS011;43896;48.178;11.578;2024-03-22T12:44:12;7.20;;;3.90;;
58091;SDS011;43896;48.178;11.578;2024-03-22T12:46:38;5.70;;;4.00;;
58091;SDS011;43896;48.178;11.578;2024-03-22T12:49:03;8.55;;;3.95;;
58091;SDS011;43896;48.178;11.578;2024-03-22T12:51:29;6.65;;;3.80;;
58091;SDS011;43896;48.178;11.578;2024-03-22T12:53:55;6.28;;;3.83;;
58091;SDS011;43896;48.178;11.578;2024-03-22T12:56:20;6.40;;;3.72;;
58091;SDS011;43896;48.178;11.578;2024-03-22T12:58:46;7.80;;;4.22;;
58091;SDS011;43896;48.178;11.578;2024-03-22T13:01:12;7.63;;;4.00;;
58091;SDS011;43896;48.178;11.578;2024-03-22T13:03:38;6.82;;;3.88;;
58091;SDS011;43896;48.178;11.578;2024-03-22T13:06:03;9.05;;;3.90;;
58091;SDS011;43896;48.178;11.578;2024-03-22T13:08:30;6.35;;;4.30;;
58091;SDS011;43896;48.178;11.578;2024-03-22T13:10:56;7.63;;;3.83;;
58091;SDS011;43896;48.178;11.578;2024-03-22T13:13:22;6.00;;;3.65;;
58091;SDS011;43896;48.178;11.578;2024-03-22T13:15:47;6.82;;;3.88;;
58091;SDS011;43896;48.178;11.578;2024-03-22T13:18:13;6.03;;;3.53;;
58091;SDS011;43896;48.178;11.578;2024-03-22T13:20:38;6.35;;;3.42;;
58091;SDS011;43896;48.178;11.578;2024-03-22T13:23:04;6.35;;;3.10;;
58091;SDS011;43896;48.178;11.578;2024-03-22T13:25:30;5.07;;;3.20;;
58091;SDS011;43896;48.178;11.578;2024-03-22T13:27:56;5.03;;;3.00;;
58091;SDS011;43896;48.178;11.578;2024-03-22T13:30:21;6.20;;;3.20;;
58091;SDS011;43896;48.178;11.578;2024-03-22T13:32:47;6.20;;;2.90;;
58091;SDS011;43896;48.178;11.578;2024-03-22T13:35:13;6.78;;;2.92;;
58091;SDS011;43896;48.178;11.578;2024-03-22T13:37:40;5.20;;;3.00;;
58091;SDS011;43896;48.178;11.578;2024-03-22T13:40:07;5.25;;;3.10;;
58091;SDS011;43896;48.178;11.578;2024-03-22T13:42:33;5.50;;;2.70;;
58091;SDS011;43896;48.178;11.578;2024-03-22T13:44:59;5.32;;;2.65;;
58091;SDS011;43896;48.178;11.578;2024-03-22T13:47:24;5.68;;;2.47;;
58091;SDS011;43896;48.178;11.578;2024-03-22T13:49:53;5.88;;;2.97;;
58091;SDS011;43896;48.178;11.578;2024-03-22T13:52:18;5.05;;;2.40;;
58091;SDS011;43896;48.178;11.578;2024-03-22T13:54:45;4.75;;;2.50;;
58091;SDS011;43896;48.178;11.578;2024-03-22T13:57:11;6.40;;;3.00;;
58091;SDS011;43896;48.178;11.578;2024-03-22T13:59:36;6.47;;;3.63;;
58091;SDS011;43896;48.178;11.578;2024-03-22T14:02:02;8.40;;;2.90;;
58091;SDS011;43896;48.178;11.578;2024-03-22T14:04:28;6.05;;;2.83;;
58091;SDS011;43896;48.178;11.578;2024-03-22T14:06:54;5.25;;;2.80;;
58091;SDS011;43896;48.178;11.578;2024-03-22T14:09:19;5.65;;;3.20;;
58091;SDS011;43896;48.178;11.578;2024-03-22T14:11:45;6.72;;;3.20;;
58091;SDS011;43896;48.178;11.578;2024-03-22T14:14:13;4.68;;;2.75;;
58091;SDS011;43896;48.178;11.578;2024-03-22T14:16:39;5.72;;;3.13;;
58091;SDS011;43896;48.178;11.578;2024-03-22T14:19:04;6.35;;;2.78;;